sensor_id;sensor_type;location;lat;lon;timestamp;P1;durP1;ratioP1;P2;durP2;ratioP2
37455;SDS011;23316;50.718;7.328;2023-12-20T00:02:19;1.67;;;1.55;;
37455;SDS011;23316;50.718;7.328;2023-12-20T00:04:46;1.80;;;1.23;;
37455;SDS011;23316;50.718;7.328;2023-12-20T00:07:14;3.22;;;1.42;;
37455;SDS011;23316;50.718;7.328;2023-12-20T00:09:41;1.77;;;1.48;;
37455;SDS011;23316;50.718;7.328;2023-12-20T00:12:08;2.15;;;1.50;;
37455;SDS011;23316;50.718;7.328;2023-12-20T00:14:36;1.95;;;1.35;;
37455;SDS011;23316;50.718;7.328;2023-12-20T00:17:05;1.80;;;1.42;;
37455;SDS011;23316;50.718;7.328;2023-12-20T00:19:32;3.50;;;1.30;;
37455;SDS011;23316;50.718;7.328;2023-12-20T00:21:59;1.52;;;1.20;;
37455;SDS011;23316;50.718;7.328;2023-12-20T00:24:27;1.90;;;1.35;;
37455;SDS011;23316;50.718;7.328;2023-12-20T00:26:54;1.70;;;1.60;;
37455;SDS011;23316;50.718;7.328;2023-12-20T00:29:21;2.00;;;1.50;;
37455;SDS011;23316;50.718;7.328;2023-12-20T00:31:48;2.30;;;1.85;;
37455;SDS011;23316;50.718;7.328;2023-12-20T00:34:17;2.13;;;1.75;;
37455;SDS011;23316;50.718;7.328;2023-12-20T00:36:44;5.18;;;1.60;;
37455;SDS011;23316;50.718;7.328;2023-12-20T00:39:11;4.57;;;1.85;;
37455;SDS011;23316;50.718;7.328;2023-12-20T00:41:39;1.60;;;1.50;;
37455;SDS011;23316;50.718;7.328;2023-12-20T00:44:06;1.80;;;1.50;;
37455;SDS011;23316;50.718;7.328;2023-12-20T00:46:33;1.95;;;1.58;;
37455;SDS011;23316;50.718;7.328;2023-12-20T00:49:00;2.20;;;1.48;;
37455;SDS011;23316;50.718;7.328;2023-12-20T00:51:29;1.80;;;1.50;;
37455;SDS011;23316;50.718;7.328;2023-12-20T00:53:56;1.30;;;1.20;;
37455;SDS011;23316;50.718;7.328;2023-12-20T00:56:23;5.95;;;1.40;;
37455;SDS011;23316;50.718;7.328;2023-12-20T00:58:51;1.50;;;1.40;;
37455;SDS011;23316;50.718;7.328;2023-12-20T01:01:18;2.47;;;1.65;;
37455;SDS011;23316;50.718;7.328;2023-12-20T01:03:45;1.55;;;1.33;;
37455;SDS011;23316;50.718;7.328;2023-12-20T01:06:12;1.77;;;1.52;;
37455;SDS011;23316;50.718;7.328;2023-12-20T01:08:42;1.40;;;1.30;;
37455;SDS011;23316;50.718;7.328;2023-12-20T01:11:09;2.40;;;1.50;;
37455;SDS011;23316;50.718;7.328;2023-12-20T01:13:37;1.30;;;1.20;;
37455;SDS011;23316;50.718;7.328;2023-12-20T01:16:04;1.35;;;1.25;;
37455;SDS011;23316;50.718;7.328;2023-12-20T01:18:31;2.08;;;1.40;;
37455;SDS011;23316;50.718;7.328;2023-12-20T01:21:01;1.70;;;1.52;;
37455;SDS011;23316;50.718;7.328;2023-12-20T01:23:28;2.85;;;1.70;;
37455;SDS011;23316;50.718;7.328;2023-12-20T01:25:57;2.20;;;1.88;;
37455;SDS011;23316;50.718;7.328;2023-12-20T01:28:25;2.75;;;2.13;;
37455;SDS011;23316;50.718;7.328;2023-12-20T01:30:53;5.55;;;2.72;;
37455;SDS011;23316;50.718;7.328;2023-12-20T01:33:20;2.50;;;2.30;;
37455;SDS011;23316;50.718;7.328;2023-12-20T01:35:47;4.03;;;2.97;;
37455;SDS011;23316;50.718;7.328;2023-12-20T01:38:14;4.85;;;3.13;;
37455;SDS011;23316;50.718;7.328;2023-12-20T01:40:44;5.40;;;3.25;;
37455;SDS011;23316;50.718;7.328;2023-12-20T01:43:12;3.85;;;3.25;;
37455;SDS011;23316;50.718;7.328;2023-12-20T01:45:40;4.45;;;3.75;;
37455;SDS011;23316;50.718;7.328;2023-12-20T01:48:08;5.03;;;3.97;;
37455;SDS011;23316;50.718;7.328;2023-12-20T01:50:36;4.68;;;3.92;;
37455;SDS011;23316;50.718;7.328;2023-12-20T01:53:04;5.93;;;4.25;;
37455;SDS011;23316;50.718;7.328;2023-12-20T01:55:34;8.50;;;5.80;;
37455;SDS011;23316;50.718;7.328;2023-12-20T01:58:03;6.72;;;5.28;;
37455;SDS011;23316;50.718;7.328;2023-12-20T02:00:32;9.63;;;6.40;;
37455;SDS011;23316;50.718;7.328;2023-12-20T02:03:00;7.30;;;6.20;;
37455;SDS011;23316;50.718;7.328;2023-12-20T02:05:28;9.73;;;6.30;;
37455;SDS011;23316;50.718;7.328;2023-12-20T02:07:57;9.38;;;6.70;;
37455;SDS011;23316;50.718;7.328;2023-12-20T02:10:24;14.32;;;7.05;;
37455;SDS011;23316;50.718;7.328;2023-12-20T02:12:51;11.25;;;7.93;;
37455;SDS011;23316;50.718;7.328;2023-12-20T02:15:19;14.95;;;7.72;;
37455;SDS011;23316;50.718;7.328;2023-12-20T02:17:47;12.35;;;7.40;;
37455;SDS011;23316;50.718;7.328;2023-12-20T02:20:15;11.82;;;6.97;;
37455;SDS011;23316;50.718;7.328;2023-12-20T02:22:44;10.48;;;7.55;;
37455;SDS011;23316;50.718;7.328;2023-12-20T02:25:12;12.40;;;7.70;;
37455;SDS011;23316;50.718;7.328;2023-12-20T02:27:39;14.25;;;9.25;;
37455;SDS011;23316;50.718;7.328;2023-12-20T02:30:06;18.65;;;9.57;;
37455;SDS011;23316;50.718;7.328;2023-12-20T02:32:34;15.27;;;9.75;;
37455;SDS011;23316;50.718;7.328;2023-12-20T02:35:02;19.17;;;9.55;;
37455;SDS011;23316;50.718;7.328;2023-12-20T02:37:29;16.92;;;8.85;;
37455;SDS011;23316;50.718;7.328;2023-12-20T02:39:58;17.67;;;9.00;;
37455;SDS011;23316;50.718;7.328;2023-12-20T02:42:25;19.42;;;9.55;;
37455;SDS011;23316;50.718;7.328;2023-12-20T02:44:52;14.00;;;8.20;;
37455;SDS011;23316;50.718;7.328;2023-12-20T02:47:19;16.05;;;9.15;;
37455;SDS011;23316;50.718;7.328;2023-12-20T02:49:47;14.60;;;9.02;;
37455;SDS011;23316;50.718;7.328;2023-12-20T02:52:14;18.23;;;9.10;;
37455;SDS011;23316;50.718;7.328;2023-12-20T02:54:41;19.17;;;9.00;;
37455;SDS011;23316;50.718;7.328;2023-12-20T02:57:10;12.95;;;7.40;;
37455;SDS011;23316;50.718;7.328;2023-12-20T02:59:37;15.32;;;6.70;;
37455;SDS011;23316;50.718;7.328;2023-12-20T03:02:04;15.38;;;5.95;;
37455;SDS011;23316;50.718;7.328;2023-12-20T03:04:32;17.65;;;5.68;;
37455;SDS011;23316;50.718;7.328;2023-12-20T03:06:59;24.55;;;5.35;;
37455;SDS011;23316;50.718;7.328;2023-12-20T03:09:26;20.05;;;4.90;;
37455;SDS011;23316;50.718;7.328;2023-12-20T03:11:53;11.05;;;3.70;;
37455;SDS011;23316;50.718;7.328;2023-12-20T03:14:22;19.05;;;4.57;;
37455;SDS011;23316;50.718;7.328;2023-12-20T03:16:49;17.42;;;4.38;;
37455;SDS011;23316;50.718;7.328;2023-12-20T03:19:17;13.82;;;2.90;;
37455;SDS011;23316;50.718;7.328;2023-12-20T03:21:45;16.25;;;2.90;;
37455;SDS011;23316;50.718;7.328;2023-12-20T03:24:12;18.65;;;3.25;;
37455;SDS011;23316;50.718;7.328;2023-12-20T03:26:39;18.30;;;3.13;;
37455;SDS011;23316;50.718;7.328;2023-12-20T03:29:07;13.38;;;2.97;;
37455;SDS011;23316;50.718;7.328;2023-12-20T03:31:35;14.57;;;3.45;;
37455;SDS011;23316;50.718;7.328;2023-12-20T03:34:02;11.82;;;2.92;;
37455;SDS011;23316;50.718;7.328;2023-12-20T03:36:30;14.55;;;2.60;;
37455;SDS011;23316;50.718;7.328;2023-12-20T03:38:57;13.63;;;2.80;;
37455;SDS011;23316;50.718;7.328;2023-12-20T03:41:24;13.30;;;3.03;;
37455;SDS011;23316;50.718;7.328;2023-12-20T03:43:52;12.57;;;2.28;;
37455;SDS011;23316;50.718;7.328;2023-12-20T03:46:19;20.73;;;2.70;;
37455;SDS011;23316;50.718;7.328;2023-12-20T03:48:47;12.65;;;2.35;;
37455;SDS011;23316;50.718;7.328;2023-12-20T03:51:15;13.40;;;2.97;;
37455;SDS011;23316;50.718;7.328;2023-12-20T03:53:42;15.20;;;2.30;;
37455;SDS011;23316;50.718;7.328;2023-12-20T03:56:09;10.10;;;2.95;;
37455;SDS011;23316;50.718;7.328;2023-12-20T03:58:37;11.63;;;2.35;;
37455;SDS011;23316;50.718;7.328;2023-12-20T04:01:08;16.92;;;2.60;;
37455;SDS011;23316;50.718;7.328;2023-12-20T04:03:37;17.13;;;2.75;;
37455;SDS011;23316;50.718;7.328;2023-12-20T04:06:05;11.48;;;2.45;;
37455;SDS011;23316;50.718;7.328;2023-12-20T04:08:32;15.32;;;3.13;;
37455;SDS011;23316;50.718;7.328;2023-12-20T04:11:00;18.30;;;2.72;;
37455;SDS011;23316;50.718;7.328;2023-12-20T04:13:27;15.13;;;2.58;;
37455;SDS011;23316;50.718;7.328;2023-12-20T04:15:54;20.50;;;3.10;;
37455;SDS011;23316;50.718;7.328;2023-12-20T04:18:21;15.23;;;2.70;;
37455;SDS011;23316;50.718;7.328;2023-12-20T04:20:48;13.55;;;2.72;;
37455;SDS011;23316;50.718;7.328;2023-12-20T04:23:18;11.18;;;2.63;;
37455;SDS011;23316;50.718;7.328;2023-12-20T04:25:46;11.98;;;2.90;;
37455;SDS011;23316;50.718;7.328;2023-12-20T04:28:13;19.00;;;3.17;;
37455;SDS011;23316;50.718;7.328;2023-12-20T04:30:40;14.13;;;2.95;;
37455;SDS011;23316;50.718;7.328;2023-12-20T04:33:08;23.30;;;3.40;;
37455;SDS011;23316;50.718;7.328;2023-12-20T04:35:35;21.75;;;3.13;;
37455;SDS011;23316;50.718;7.328;2023-12-20T04:38:03;14.52;;;2.45;;
37455;SDS011;23316;50.718;7.328;2023-12-20T04:40:31;17.52;;;3.55;;
37455;SDS011;23316;50.718;7.328;2023-12-20T04:42:59;25.50;;;3.30;;
37455;SDS011;23316;50.718;7.328;2023-12-20T04:45:26;19.58;;;2.88;;
37455;SDS011;23316;50.718;7.328;2023-12-20T04:47:53;19.95;;;2.83;;
37455;SDS011;23316;50.718;7.328;2023-12-20T04:50:21;13.30;;;2.25;;
37455;SDS011;23316;50.718;7.328;2023-12-20T04:52:48;19.50;;;3.13;;
37455;SDS011;23316;50.718;7.328;2023-12-20T04:55:16;15.60;;;2.50;;
37455;SDS011;23316;50.718;7.328;2023-12-20T04:57:44;15.32;;;2.85;;
37455;SDS011;23316;50.718;7.328;2023-12-20T05:00:12;15.02;;;3.40;;
37455;SDS011;23316;50.718;7.328;2023-12-20T05:02:40;16.75;;;3.17;;
37455;SDS011;23316;50.718;7.328;2023-12-20T05:05:08;21.00;;;3.30;;
37455;SDS011;23316;50.718;7.328;2023-12-20T05:07:35;14.73;;;3.17;;
37455;SDS011;23316;50.718;7.328;2023-12-20T05:10:02;15.25;;;3.15;;
37455;SDS011;23316;50.718;7.328;2023-12-20T05:12:30;12.43;;;3.00;;
37455;SDS011;23316;50.718;7.328;2023-12-20T05:14:59;17.42;;;3.10;;
37455;SDS011;23316;50.718;7.328;2023-12-20T05:17:26;13.30;;;2.83;;
37455;SDS011;23316;50.718;7.328;2023-12-20T05:19:53;23.73;;;4.53;;
37455;SDS011;23316;50.718;7.328;2023-12-20T05:22:21;14.35;;;3.28;;
37455;SDS011;23316;50.718;7.328;2023-12-20T05:24:48;24.50;;;3.72;;
37455;SDS011;23316;50.718;7.328;2023-12-20T05:27:15;20.23;;;3.58;;
37455;SDS011;23316;50.718;7.328;2023-12-20T05:29:43;14.73;;;3.17;;
37455;SDS011;23316;50.718;7.328;2023-12-20T05:32:11;17.27;;;2.90;;
37455;SDS011;23316;50.718;7.328;2023-12-20T05:34:39;23.20;;;3.13;;
37455;SDS011;23316;50.718;7.328;2023-12-20T05:37:06;25.45;;;4.07;;
37455;SDS011;23316;50.718;7.328;2023-12-20T05:39:33;19.23;;;3.15;;
37455;SDS011;23316;50.718;7.328;2023-12-20T05:42:00;18.38;;;3.28;;
37455;SDS011;23316;50.718;7.328;2023-12-20T05:44:28;16.90;;;2.83;;
37455;SDS011;23316;50.718;7.328;2023-12-20T05:46:55;15.88;;;3.00;;
37455;SDS011;23316;50.718;7.328;2023-12-20T05:49:23;17.80;;;3.13;;
37455;SDS011;23316;50.718;7.328;2023-12-20T05:51:51;19.80;;;3.47;;
37455;SDS011;23316;50.718;7.328;2023-12-20T05:54:18;22.45;;;3.33;;
37455;SDS011;23316;50.718;7.328;2023-12-20T05:56:45;23.42;;;3.63;;
37455;SDS011;23316;50.718;7.328;2023-12-20T05:59:13;19.38;;;3.58;;
37455;SDS011;23316;50.718;7.328;2023-12-20T06:01:40;15.63;;;3.10;;
37455;SDS011;23316;50.718;7.328;2023-12-20T06:04:07;16.30;;;3.42;;
37455;SDS011;23316;50.718;7.328;2023-12-20T06:06:39;20.85;;;3.20;;
37455;SDS011;23316;50.718;7.328;2023-12-20T06:09:07;20.52;;;3.65;;
37455;SDS011;23316;50.718;7.328;2023-12-20T06:11:34;30.63;;;4.20;;
37455;SDS011;23316;50.718;7.328;2023-12-20T06:14:02;19.95;;;3.35;;
37455;SDS011;23316;50.718;7.328;2023-12-20T06:16:29;30.40;;;4.43;;
37455;SDS011;23316;50.718;7.328;2023-12-20T06:18:56;26.52;;;4.72;;
37455;SDS011;23316;50.718;7.328;2023-12-20T06:21:23;27.23;;;3.75;;
37455;SDS011;23316;50.718;7.328;2023-12-20T06:23:52;16.35;;;3.60;;
37455;SDS011;23316;50.718;7.328;2023-12-20T06:26:20;18.40;;;3.47;;
37455;SDS011;23316;50.718;7.328;2023-12-20T06:28:47;22.75;;;4.55;;
37455;SDS011;23316;50.718;7.328;2023-12-20T06:31:14;18.98;;;3.28;;
37455;SDS011;23316;50.718;7.328;2023-12-20T06:33:42;14.98;;;3.10;;
37455;SDS011;23316;50.718;7.328;2023-12-20T06:36:11;32.22;;;4.25;;
37455;SDS011;23316;50.718;7.328;2023-12-20T06:38:38;22.20;;;3.13;;
37455;SDS011;23316;50.718;7.328;2023-12-20T06:41:12;19.02;;;3.80;;
37455;SDS011;23316;50.718;7.328;2023-12-20T06:43:39;16.25;;;3.13;;
37455;SDS011;23316;50.718;7.328;2023-12-20T06:46:07;25.10;;;4.22;;
37455;SDS011;23316;50.718;7.328;2023-12-20T06:48:35;17.75;;;2.90;;
37455;SDS011;23316;50.718;7.328;2023-12-20T06:51:02;20.38;;;3.58;;
37455;SDS011;23316;50.718;7.328;2023-12-20T06:53:29;16.25;;;2.78;;
37455;SDS011;23316;50.718;7.328;2023-12-20T06:55:57;16.42;;;3.83;;
37455;SDS011;23316;50.718;7.328;2023-12-20T06:58:25;19.27;;;3.08;;
37455;SDS011;23316;50.718;7.328;2023-12-20T07:00:52;26.38;;;3.22;;
37455;SDS011;23316;50.718;7.328;2023-12-20T07:03:20;21.85;;;3.40;;
37455;SDS011;23316;50.718;7.328;2023-12-20T07:05:47;13.45;;;2.60;;
37455;SDS011;23316;50.718;7.328;2023-12-20T07:08:14;16.40;;;4.80;;
37455;SDS011;23316;50.718;7.328;2023-12-20T07:10:42;23.98;;;3.13;;
37455;SDS011;23316;50.718;7.328;2023-12-20T07:13:09;17.83;;;3.20;;
37455;SDS011;23316;50.718;7.328;2023-12-20T07:15:38;23.55;;;3.78;;
37455;SDS011;23316;50.718;7.328;2023-12-20T07:18:05;19.15;;;3.22;;
37455;SDS011;23316;50.718;7.328;2023-12-20T07:20:32;25.42;;;3.55;;
37455;SDS011;23316;50.718;7.328;2023-12-20T07:23:00;22.52;;;3.60;;
37455;SDS011;23316;50.718;7.328;2023-12-20T07:25:27;14.50;;;3.00;;
37455;SDS011;23316;50.718;7.328;2023-12-20T07:27:55;18.52;;;3.63;;
37455;SDS011;23316;50.718;7.328;2023-12-20T07:30:23;24.58;;;3.33;;
37455;SDS011;23316;50.718;7.328;2023-12-20T07:32:51;19.00;;;3.30;;
37455;SDS011;23316;50.718;7.328;2023-12-20T07:35:19;20.85;;;3.35;;
37455;SDS011;23316;50.718;7.328;2023-12-20T07:37:46;29.77;;;3.45;;
37455;SDS011;23316;50.718;7.328;2023-12-20T07:40:13;25.65;;;3.20;;
37455;SDS011;23316;50.718;7.328;2023-12-20T07:42:42;19.83;;;3.17;;
37455;SDS011;23316;50.718;7.328;2023-12-20T07:45:09;14.20;;;2.90;;
37455;SDS011;23316;50.718;7.328;2023-12-20T07:47:37;21.52;;;4.15;;
37455;SDS011;23316;50.718;7.328;2023-12-20T07:50:06;20.65;;;3.70;;
37455;SDS011;23316;50.718;7.328;2023-12-20T07:52:33;17.95;;;3.50;;
37455;SDS011;23316;50.718;7.328;2023-12-20T07:55:00;14.38;;;2.85;;
37455;SDS011;23316;50.718;7.328;2023-12-20T07:57:28;16.10;;;3.47;;
37455;SDS011;23316;50.718;7.328;2023-12-20T07:59:56;20.05;;;2.90;;
37455;SDS011;23316;50.718;7.328;2023-12-20T08:02:23;25.40;;;4.60;;
37455;SDS011;23316;50.718;7.328;2023-12-20T08:04:50;12.68;;;2.75;;
37455;SDS011;23316;50.718;7.328;2023-12-20T08:07:19;19.73;;;3.35;;
37455;SDS011;23316;50.718;7.328;2023-12-20T08:09:46;18.75;;;3.30;;
37455;SDS011;23316;50.718;7.328;2023-12-20T08:12:13;19.42;;;3.05;;
37455;SDS011;23316;50.718;7.328;2023-12-20T08:14:43;12.02;;;2.90;;
37455;SDS011;23316;50.718;7.328;2023-12-20T08:17:11;22.05;;;3.88;;
37455;SDS011;23316;50.718;7.328;2023-12-20T08:19:38;23.02;;;3.60;;
37455;SDS011;23316;50.718;7.328;2023-12-20T08:22:05;19.10;;;3.13;;
37455;SDS011;23316;50.718;7.328;2023-12-20T08:24:34;14.07;;;2.65;;
37455;SDS011;23316;50.718;7.328;2023-12-20T08:27:01;21.67;;;3.13;;
37455;SDS011;23316;50.718;7.328;2023-12-20T08:29:29;19.42;;;3.13;;
37455;SDS011;23316;50.718;7.328;2023-12-20T08:31:56;18.15;;;2.70;;
37455;SDS011;23316;50.718;7.328;2023-12-20T08:34:23;23.90;;;3.63;;
37455;SDS011;23316;50.718;7.328;2023-12-20T08:36:50;18.42;;;3.38;;
37455;SDS011;23316;50.718;7.328;2023-12-20T08:39:18;17.10;;;3.20;;
37455;SDS011;23316;50.718;7.328;2023-12-20T08:41:46;17.45;;;2.90;;
37455;SDS011;23316;50.718;7.328;2023-12-20T08:44:14;20.05;;;3.88;;
37455;SDS011;23316;50.718;7.328;2023-12-20T08:46:41;21.25;;;3.42;;
37455;SDS011;23316;50.718;7.328;2023-12-20T08:49:08;19.45;;;4.20;;
37455;SDS011;23316;50.718;7.328;2023-12-20T08:51:35;20.77;;;3.38;;
37455;SDS011;23316;50.718;7.328;2023-12-20T08:54:05;27.13;;;4.22;;
37455;SDS011;23316;50.718;7.328;2023-12-20T08:56:34;19.35;;;3.55;;
37455;SDS011;23316;50.718;7.328;2023-12-20T08:59:02;16.15;;;2.83;;
37455;SDS011;23316;50.718;7.328;2023-12-20T09:01:30;16.58;;;2.88;;
37455;SDS011;23316;50.718;7.328;2023-12-20T09:03:57;28.80;;;3.40;;
37455;SDS011;23316;50.718;7.328;2023-12-20T09:06:24;22.88;;;3.35;;
37455;SDS011;23316;50.718;7.328;2023-12-20T09:08:51;23.38;;;2.90;;
37455;SDS011;23316;50.718;7.328;2023-12-20T09:11:19;18.10;;;3.63;;
37455;SDS011;23316;50.718;7.328;2023-12-20T09:13:46;19.50;;;3.28;;
37455;SDS011;23316;50.718;7.328;2023-12-20T09:16:15;18.13;;;3.38;;
37455;SDS011;23316;50.718;7.328;2023-12-20T09:18:42;14.45;;;3.38;;
37455;SDS011;23316;50.718;7.328;2023-12-20T09:21:10;26.67;;;3.60;;
37455;SDS011;23316;50.718;7.328;2023-12-20T09:23:38;21.80;;;3.13;;
37455;SDS011;23316;50.718;7.328;2023-12-20T09:26:05;26.77;;;3.35;;
37455;SDS011;23316;50.718;7.328;2023-12-20T09:28:33;19.25;;;2.85;;
37455;SDS011;23316;50.718;7.328;2023-12-20T09:31:03;23.40;;;3.30;;
37455;SDS011;23316;50.718;7.328;2023-12-20T09:33:33;22.73;;;3.50;;
37455;SDS011;23316;50.718;7.328;2023-12-20T09:36:01;21.98;;;4.25;;
37455;SDS011;23316;50.718;7.328;2023-12-20T09:38:29;22.60;;;2.92;;
37455;SDS011;23316;50.718;7.328;2023-12-20T09:40:56;17.35;;;3.28;;
37455;SDS011;23316;50.718;7.328;2023-12-20T09:43:24;21.33;;;2.97;;
37455;SDS011;23316;50.718;7.328;2023-12-20T09:45:54;14.93;;;2.90;;
37455;SDS011;23316;50.718;7.328;2023-12-20T09:48:27;19.70;;;3.20;;
37455;SDS011;23316;50.718;7.328;2023-12-20T09:50:57;19.83;;;3.58;;
37455;SDS011;23316;50.718;7.328;2023-12-20T09:53:25;17.55;;;3.35;;
37455;SDS011;23316;50.718;7.328;2023-12-20T09:55:55;15.00;;;2.83;;
37455;SDS011;23316;50.718;7.328;2023-12-20T09:58:25;20.75;;;3.33;;
37455;SDS011;23316;50.718;7.328;2023-12-20T10:00:53;17.33;;;3.28;;
37455;SDS011;23316;50.718;7.328;2023-12-20T10:03:23;17.50;;;3.10;;
37455;SDS011;23316;50.718;7.328;2023-12-20T10:05:52;14.10;;;2.85;;
37455;SDS011;23316;50.718;7.328;2023-12-20T10:08:24;17.42;;;2.85;;
37455;SDS011;23316;50.718;7.328;2023-12-20T10:10:52;15.23;;;2.42;;
37455;SDS011;23316;50.718;7.328;2023-12-20T10:13:19;18.85;;;3.28;;
37455;SDS011;23316;50.718;7.328;2023-12-20T10:15:46;18.98;;;2.78;;
37455;SDS011;23316;50.718;7.328;2023-12-20T10:18:13;16.25;;;3.25;;
37455;SDS011;23316;50.718;7.328;2023-12-20T10:20:42;20.02;;;3.88;;
37455;SDS011;23316;50.718;7.328;2023-12-20T10:23:13;15.20;;;2.53;;
37455;SDS011;23316;50.718;7.328;2023-12-20T10:25:43;15.68;;;3.03;;
37455;SDS011;23316;50.718;7.328;2023-12-20T10:28:16;26.38;;;3.15;;
37455;SDS011;23316;50.718;7.328;2023-12-20T10:30:46;19.30;;;3.40;;
37455;SDS011;23316;50.718;7.328;2023-12-20T10:33:14;14.30;;;2.97;;
37455;SDS011;23316;50.718;7.328;2023-12-20T10:35:50;20.05;;;2.83;;
37455;SDS011;23316;50.718;7.328;2023-12-20T10:38:19;18.60;;;3.13;;
37455;SDS011;23316;50.718;7.328;2023-12-20T10:40:48;15.43;;;2.60;;
37455;SDS011;23316;50.718;7.328;2023-12-20T10:43:20;14.98;;;3.10;;
37455;SDS011;23316;50.718;7.328;2023-12-20T10:45:48;17.95;;;2.70;;
37455;SDS011;23316;50.718;7.328;2023-12-20T10:48:15;14.75;;;2.17;;
37455;SDS011;23316;50.718;7.328;2023-12-20T10:50:43;11.80;;;2.65;;
37455;SDS011;23316;50.718;7.328;2023-12-20T10:53:13;12.13;;;2.25;;
37455;SDS011;23316;50.718;7.328;2023-12-20T10:55:40;20.52;;;3.33;;
37455;SDS011;23316;50.718;7.328;2023-12-20T10:58:11;14.63;;;2.45;;
37455;SDS011;23316;50.718;7.328;2023-12-20T11:00:40;14.93;;;2.78;;
37455;SDS011;23316;50.718;7.328;2023-12-20T11:03:08;20.15;;;3.10;;
37455;SDS011;23316;50.718;7.328;2023-12-20T11:05:38;14.10;;;2.90;;
37455;SDS011;23316;50.718;7.328;2023-12-20T11:08:12;15.75;;;2.42;;
37455;SDS011;23316;50.718;7.328;2023-12-20T11:10:47;14.32;;;3.08;;
37455;SDS011;23316;50.718;7.328;2023-12-20T11:13:23;18.77;;;3.45;;
37455;SDS011;23316;50.718;7.328;2023-12-20T11:15:55;18.55;;;2.95;;
37455;SDS011;23316;50.718;7.328;2023-12-20T11:18:28;17.73;;;3.08;;
37455;SDS011;23316;50.718;7.328;2023-12-20T11:20:56;19.20;;;3.10;;
37455;SDS011;23316;50.718;7.328;2023-12-20T11:23:29;17.83;;;3.75;;
37455;SDS011;23316;50.718;7.328;2023-12-20T11:25:56;19.95;;;2.85;;
37455;SDS011;23316;50.718;7.328;2023-12-20T11:28:25;14.35;;;3.67;;
37455;SDS011;23316;50.718;7.328;2023-12-20T11:30:55;22.45;;;3.00;;
37455;SDS011;23316;50.718;7.328;2023-12-20T11:33:25;20.55;;;3.30;;
37455;SDS011;23316;50.718;7.328;2023-12-20T11:35:56;21.20;;;3.22;;
37455;SDS011;23316;50.718;7.328;2023-12-20T11:38:25;20.67;;;3.15;;
37455;SDS011;23316;50.718;7.328;2023-12-20T11:40:53;21.13;;;3.55;;
37455;SDS011;23316;50.718;7.328;2023-12-20T11:43:31;16.27;;;2.75;;
37455;SDS011;23316;50.718;7.328;2023-12-20T11:46:02;15.90;;;2.83;;
37455;SDS011;23316;50.718;7.328;2023-12-20T11:48:31;18.17;;;2.80;;
37455;SDS011;23316;50.718;7.328;2023-12-20T11:50:58;15.13;;;3.20;;
37455;SDS011;23316;50.718;7.328;2023-12-20T11:53:26;13.73;;;2.65;;
37455;SDS011;23316;50.718;7.328;2023-12-20T11:55:53;12.55;;;2.88;;
37455;SDS011;23316;50.718;7.328;2023-12-20T11:58:21;11.85;;;2.78;;
37455;SDS011;23316;50.718;7.328;2023-12-20T12:00:50;17.48;;;2.95;;
37455;SDS011;23316;50.718;7.328;2023-12-20T12:03:18;14.27;;;2.83;;
37455;SDS011;23316;50.718;7.328;2023-12-20T12:05:46;16.98;;;3.00;;
37455;SDS011;23316;50.718;7.328;2023-12-20T12:08:14;17.70;;;3.17;;
37455;SDS011;23316;50.718;7.328;2023-12-20T12:10:43;22.92;;;3.90;;
37455;SDS011;23316;50.718;7.328;2023-12-20T12:13:11;19.05;;;2.75;;
37455;SDS011;23316;50.718;7.328;2023-12-20T12:15:39;16.05;;;3.42;;
37455;SDS011;23316;50.718;7.328;2023-12-20T12:18:09;15.13;;;2.63;;
37455;SDS011;23316;50.718;7.328;2023-12-20T12:20:36;16.25;;;2.90;;
37455;SDS011;23316;50.718;7.328;2023-12-20T12:23:04;14.23;;;2.92;;
37455;SDS011;23316;50.718;7.328;2023-12-20T12:25:34;14.73;;;2.88;;
37455;SDS011;23316;50.718;7.328;2023-12-20T12:28:02;19.58;;;3.53;;
37455;SDS011;23316;50.718;7.328;2023-12-20T12:30:29;11.18;;;2.97;;
37455;SDS011;23316;50.718;7.328;2023-12-20T12:32:57;17.45;;;2.97;;
37455;SDS011;23316;50.718;7.328;2023-12-20T12:35:25;19.58;;;3.53;;
37455;SDS011;23316;50.718;7.328;2023-12-20T12:37:53;12.80;;;2.42;;
37455;SDS011;23316;50.718;7.328;2023-12-20T12:40:20;16.65;;;3.65;;
37455;SDS011;23316;50.718;7.328;2023-12-20T12:42:47;12.50;;;2.80;;
37455;SDS011;23316;50.718;7.328;2023-12-20T12:45:14;17.83;;;3.17;;
37455;SDS011;23316;50.718;7.328;2023-12-20T12:47:42;15.57;;;3.10;;
37455;SDS011;23316;50.718;7.328;2023-12-20T12:50:09;16.13;;;2.90;;
37455;SDS011;23316;50.718;7.328;2023-12-20T12:52:38;18.92;;;3.60;;
37455;SDS011;23316;50.718;7.328;2023-12-20T12:55:05;19.75;;;3.47;;
37455;SDS011;23316;50.718;7.328;2023-12-20T12:57:33;13.82;;;2.33;;
37455;SDS011;23316;50.718;7.328;2023-12-20T13:00:00;14.55;;;3.05;;
37455;SDS011;23316;50.718;7.328;2023-12-20T13:02:28;16.90;;;3.60;;
37455;SDS011;23316;50.718;7.328;2023-12-20T13:04:56;13.75;;;2.42;;
37455;SDS011;23316;50.718;7.328;2023-12-20T13:07:23;13.90;;;2.83;;
37455;SDS011;23316;50.718;7.328;2023-12-20T13:09:52;15.25;;;2.80;;
37455;SDS011;23316;50.718;7.328;2023-12-20T13:12:19;11.32;;;2.90;;
37455;SDS011;23316;50.718;7.328;2023-12-20T13:14:47;13.27;;;2.30;;
37455;SDS011;23316;50.718;7.328;2023-12-20T13:17:14;19.83;;;3.15;;
37455;SDS011;23316;50.718;7.328;2023-12-20T13:19:42;13.23;;;2.67;;
37455;SDS011;23316;50.718;7.328;2023-12-20T13:22:09;20.92;;;2.97;;
37455;SDS011;23316;50.718;7.328;2023-12-20T13:24:36;18.27;;;3.10;;
37455;SDS011;23316;50.718;7.328;2023-12-20T13:27:05;15.98;;;3.33;;
37455;SDS011;23316;50.718;7.328;2023-12-20T13:29:32;15.05;;;3.10;;
37455;SDS011;23316;50.718;7.328;2023-12-20T13:32:00;16.15;;;2.92;;
37455;SDS011;23316;50.718;7.328;2023-12-20T13:34:29;14.68;;;3.13;;
37455;SDS011;23316;50.718;7.328;2023-12-20T13:36:56;19.55;;;3.33;;
37455;SDS011;23316;50.718;7.328;2023-12-20T13:39:24;17.55;;;3.75;;
37455;SDS011;23316;50.718;7.328;2023-12-20T13:41:51;14.75;;;2.92;;
37455;SDS011;23316;50.718;7.328;2023-12-20T13:44:20;17.30;;;3.28;;
37455;SDS011;23316;50.718;7.328;2023-12-20T13:46:47;12.13;;;3.47;;
37455;SDS011;23316;50.718;7.328;2023-12-20T13:49:15;14.55;;;2.63;;
37455;SDS011;23316;50.718;7.328;2023-12-20T13:51:42;12.43;;;2.70;;
37455;SDS011;23316;50.718;7.328;2023-12-20T13:54:10;13.05;;;2.45;;
37455;SDS011;23316;50.718;7.328;2023-12-20T13:56:37;16.77;;;3.00;;
37455;SDS011;23316;50.718;7.328;2023-12-20T13:59:04;14.05;;;3.22;;
37455;SDS011;23316;50.718;7.328;2023-12-20T14:01:33;20.40;;;2.80;;
37455;SDS011;23316;50.718;7.328;2023-12-20T14:04:01;12.27;;;2.65;;
37455;SDS011;23316;50.718;7.328;2023-12-20T14:06:29;22.45;;;2.85;;
37455;SDS011;23316;50.718;7.328;2023-12-20T14:08:56;15.25;;;3.03;;
37455;SDS011;23316;50.718;7.328;2023-12-20T14:11:25;13.13;;;2.88;;
37455;SDS011;23316;50.718;7.328;2023-12-20T14:13:52;21.70;;;2.97;;
37455;SDS011;23316;50.718;7.328;2023-12-20T14:16:23;15.35;;;3.10;;
37455;SDS011;23316;50.718;7.328;2023-12-20T14:18:51;16.98;;;3.08;;
37455;SDS011;23316;50.718;7.328;2023-12-20T14:21:22;15.10;;;2.78;;
37455;SDS011;23316;50.718;7.328;2023-12-20T14:23:50;12.93;;;2.65;;
37455;SDS011;23316;50.718;7.328;2023-12-20T14:26:18;13.13;;;2.30;;
37455;SDS011;23316;50.718;7.328;2023-12-20T14:28:45;8.70;;;2.22;;
37455;SDS011;23316;50.718;7.328;2023-12-20T14:31:12;11.55;;;2.20;;
37455;SDS011;23316;50.718;7.328;2023-12-20T14:33:39;10.82;;;2.30;;
37455;SDS011;23316;50.718;7.328;2023-12-20T14:36:09;8.18;;;2.38;;
37455;SDS011;23316;50.718;7.328;2023-12-20T14:38:37;9.98;;;2.10;;
37455;SDS011;23316;50.718;7.328;2023-12-20T14:41:06;12.00;;;2.10;;